sensor_id;sensor_type;location;lat;lon;timestamp;P1;durP1;ratioP1;P2;durP2;ratioP2
2650;SDS011;1335;48.180;16.342;2022-08-20T00:00:35;3.60;;;3.30;;
2650;SDS011;1335;48.180;16.342;2022-08-20T00:03:05;4.40;;;4.00;;
2650;SDS011;1335;48.180;16.342;2022-08-20T00:05:34;3.33;;;3.13;;
2650;SDS011;1335;48.180;16.342;2022-08-20T00:08:03;4.00;;;3.57;;
2650;SDS011;1335;48.180;16.342;2022-08-20T00:10:31;4.03;;;3.50;;
2650;SDS011;1335;48.180;16.342;2022-08-20T00:13:00;3.30;;;3.00;;
2650;SDS011;1335;48.180;16.342;2022-08-20T00:15:28;3.63;;;3.33;;
2650;SDS011;1335;48.180;16.342;2022-08-20T00:17:58;3.40;;;3.10;;
2650;SDS011;1335;48.180;16.342;2022-08-20T00:20:28;4.40;;;4.00;;
2650;SDS011;1335;48.180;16.342;2022-08-20T00:22:57;3.57;;;3.30;;
2650;SDS011;1335;48.180;16.342;2022-08-20T00:25:25;3.50;;;3.20;;
2650;SDS011;1335;48.180;16.342;2022-08-20T00:27:53;3.47;;;3.27;;
2650;SDS011;1335;48.180;16.342;2022-08-20T00:30:21;5.13;;;3.63;;
2650;SDS011;1335;48.180;16.342;2022-08-20T00:32:52;6.13;;;2.87;;
2650;SDS011;1335;48.180;16.342;2022-08-20T00:35:28;3.40;;;3.20;;
2650;SDS011;1335;48.180;16.342;2022-08-20T00:37:57;3.50;;;3.20;;
2650;SDS011;1335;48.180;16.342;2022-08-20T00:40:26;3.03;;;2.83;;
2650;SDS011;1335;48.180;16.342;2022-08-20T00:43:03;3.10;;;2.90;;
2650;SDS011;1335;48.180;16.342;2022-08-20T00:45:33;2.80;;;2.60;;
2650;SDS011;1335;48.180;16.342;2022-08-20T00:48:01;3.93;;;3.63;;
2650;SDS011;1335;48.180;16.342;2022-08-20T00:50:32;3.20;;;2.87;;
2650;SDS011;1335;48.180;16.342;2022-08-20T00:53:01;2.77;;;2.57;;
2650;SDS011;1335;48.180;16.342;2022-08-20T00:55:32;3.20;;;3.00;;
2650;SDS011;1335;48.180;16.342;2022-08-20T00:58:02;4.70;;;3.70;;
2650;SDS011;1335;48.180;16.342;2022-08-20T01:00:36;3.00;;;2.80;;
2650;SDS011;1335;48.180;16.342;2022-08-20T01:03:07;2.50;;;2.40;;
2650;SDS011;1335;48.180;16.342;2022-08-20T01:05:38;3.30;;;3.10;;
2650;SDS011;1335;48.180;16.342;2022-08-20T01:08:06;2.73;;;2.60;;
2650;SDS011;1335;48.180;16.342;2022-08-20T01:10:34;3.00;;;2.80;;
2650;SDS011;1335;48.180;16.342;2022-08-20T01:13:04;3.23;;;3.03;;
2650;SDS011;1335;48.180;16.342;2022-08-20T01:15:35;3.60;;;2.83;;
2650;SDS011;1335;48.180;16.342;2022-08-20T01:18:04;3.00;;;2.80;;
2650;SDS011;1335;48.180;16.342;2022-08-20T01:20:35;3.13;;;2.93;;
2650;SDS011;1335;48.180;16.342;2022-08-20T01:23:10;3.00;;;2.80;;
2650;SDS011;1335;48.180;16.342;2022-08-20T01:25:57;2.40;;;2.30;;
2650;SDS011;1335;48.180;16.342;2022-08-20T01:28:29;2.20;;;2.10;;
2650;SDS011;1335;48.180;16.342;2022-08-20T01:31:04;3.17;;;2.40;;
2650;SDS011;1335;48.180;16.342;2022-08-20T01:33:33;2.10;;;2.00;;
2650;SDS011;1335;48.180;16.342;2022-08-20T01:36:01;2.70;;;2.50;;
2650;SDS011;1335;48.180;16.342;2022-08-20T01:38:29;2.20;;;2.10;;
2650;SDS011;1335;48.180;16.342;2022-08-20T01:41:06;4.40;;;2.70;;
2650;SDS011;1335;48.180;16.342;2022-08-20T01:43:51;2.57;;;2.40;;
2650;SDS011;1335;48.180;16.342;2022-08-20T01:46:22;2.40;;;2.30;;
2650;SDS011;1335;48.180;16.342;2022-08-20T01:48:52;2.03;;;1.93;;
2650;SDS011;1335;48.180;16.342;2022-08-20T01:51:20;2.30;;;2.20;;
2650;SDS011;1335;48.180;16.342;2022-08-20T01:53:51;1.90;;;1.80;;
2650;SDS011;1335;48.180;16.342;2022-08-20T01:56:22;2.03;;;1.93;;
2650;SDS011;1335;48.180;16.342;2022-08-20T01:58:53;1.87;;;1.50;;
2650;SDS011;1335;48.180;16.342;2022-08-20T02:01:23;2.00;;;1.90;;
2650;SDS011;1335;48.180;16.342;2022-08-20T02:03:52;1.80;;;1.70;;
2650;SDS011;1335;48.180;16.342;2022-08-20T02:06:21;2.00;;;1.80;;
2650;SDS011;1335;48.180;16.342;2022-08-20T02:08:50;1.73;;;1.63;;
2650;SDS011;1335;48.180;16.342;2022-08-20T02:11:19;2.27;;;1.90;;
2650;SDS011;1335;48.180;16.342;2022-08-20T02:13:48;2.00;;;1.90;;
2650;SDS011;1335;48.180;16.342;2022-08-20T02:16:17;1.50;;;1.40;;
2650;SDS011;1335;48.180;16.342;2022-08-20T02:18:47;1.87;;;1.37;;
2650;SDS011;1335;48.180;16.342;2022-08-20T02:21:18;1.60;;;1.50;;
2650;SDS011;1335;48.180;16.342;2022-08-20T02:23:46;1.90;;;1.80;;
2650;SDS011;1335;48.180;16.342;2022-08-20T02:26:14;1.40;;;1.40;;
2650;SDS011;1335;48.180;16.342;2022-08-20T02:28:44;1.70;;;1.60;;
2650;SDS011;1335;48.180;16.342;2022-08-20T02:31:14;1.50;;;1.20;;
2650;SDS011;1335;48.180;16.342;2022-08-20T02:33:42;1.43;;;1.30;;
2650;SDS011;1335;48.180;16.342;2022-08-20T02:36:09;1.33;;;1.13;;
2650;SDS011;1335;48.180;16.342;2022-08-20T02:38:37;1.60;;;1.50;;
2650;SDS011;1335;48.180;16.342;2022-08-20T02:41:05;1.40;;;1.30;;
2650;SDS011;1335;48.180;16.342;2022-08-20T02:43:32;1.23;;;0.90;;
2650;SDS011;1335;48.180;16.342;2022-08-20T02:46:01;1.10;;;1.10;;
2650;SDS011;1335;48.180;16.342;2022-08-20T02:48:28;1.40;;;1.30;;
2650;SDS011;1335;48.180;16.342;2022-08-20T02:51:00;1.20;;;1.10;;
2650;SDS011;1335;48.180;16.342;2022-08-20T02:53:29;1.43;;;1.20;;
2650;SDS011;1335;48.180;16.342;2022-08-20T02:55:59;1.20;;;1.20;;
2650;SDS011;1335;48.180;16.342;2022-08-20T02:58:26;0.90;;;0.90;;
2650;SDS011;1335;48.180;16.342;2022-08-20T03:00:54;1.20;;;1.20;;
2650;SDS011;1335;48.180;16.342;2022-08-20T03:03:23;1.33;;;1.30;;
2650;SDS011;1335;48.180;16.342;2022-08-20T03:05:51;1.20;;;1.20;;
2650;SDS011;1335;48.180;16.342;2022-08-20T03:08:20;0.90;;;0.90;;
2650;SDS011;1335;48.180;16.342;2022-08-20T03:10:48;2.03;;;0.80;;
2650;SDS011;1335;48.180;16.342;2022-08-20T03:13:16;0.90;;;0.90;;
2650;SDS011;1335;48.180;16.342;2022-08-20T03:15:45;1.27;;;1.17;;
2650;SDS011;1335;48.180;16.342;2022-08-20T03:18:14;1.30;;;1.10;;
2650;SDS011;1335;48.180;16.342;2022-08-20T03:20:45;1.60;;;1.03;;
2650;SDS011;1335;48.180;16.342;2022-08-20T03:23:13;1.10;;;1.10;;
2650;SDS011;1335;48.180;16.342;2022-08-20T03:25:41;1.10;;;1.10;;
2650;SDS011;1335;48.180;16.342;2022-08-20T03:28:09;1.67;;;1.27;;
2650;SDS011;1335;48.180;16.342;2022-08-20T03:30:36;1.53;;;1.20;;
2650;SDS011;1335;48.180;16.342;2022-08-20T03:33:04;1.17;;;1.17;;
2650;SDS011;1335;48.180;16.342;2022-08-20T03:35:33;1.47;;;1.10;;
2650;SDS011;1335;48.180;16.342;2022-08-20T03:38:05;1.20;;;1.20;;
2650;SDS011;1335;48.180;16.342;2022-08-20T03:40:33;1.00;;;1.00;;
2650;SDS011;1335;48.180;16.342;2022-08-20T03:43:01;1.57;;;1.00;;
2650;SDS011;1335;48.180;16.342;2022-08-20T03:45:28;1.20;;;1.10;;
2650;SDS011;1335;48.180;16.342;2022-08-20T03:47:56;1.40;;;1.30;;
2650;SDS011;1335;48.180;16.342;2022-08-20T03:50:26;1.10;;;1.10;;
2650;SDS011;1335;48.180;16.342;2022-08-20T03:52:55;1.13;;;1.13;;
2650;SDS011;1335;48.180;16.342;2022-08-20T03:55:25;2.77;;;1.10;;
2650;SDS011;1335;48.180;16.342;2022-08-20T03:57:54;1.33;;;1.33;;
2650;SDS011;1335;48.180;16.342;2022-08-20T04:00:26;1.27;;;0.80;;
2650;SDS011;1335;48.180;16.342;2022-08-20T04:02:55;1.27;;;1.00;;
2650;SDS011;1335;48.180;16.342;2022-08-20T04:05:22;1.80;;;1.70;;
2650;SDS011;1335;48.180;16.342;2022-08-20T04:07:50;3.10;;;1.93;;
2650;SDS011;1335;48.180;16.342;2022-08-20T04:10:17;1.53;;;1.17;;
2650;SDS011;1335;48.180;16.342;2022-08-20T04:12:46;3.37;;;1.40;;
2650;SDS011;1335;48.180;16.342;2022-08-20T04:15:14;1.03;;;1.00;;
2650;SDS011;1335;48.180;16.342;2022-08-20T04:17:43;0.87;;;0.87;;
2650;SDS011;1335;48.180;16.342;2022-08-20T04:20:13;1.43;;;1.27;;
2650;SDS011;1335;48.180;16.342;2022-08-20T04:22:43;1.60;;;0.90;;
2650;SDS011;1335;48.180;16.342;2022-08-20T04:25:11;1.13;;;1.03;;
2650;SDS011;1335;48.180;16.342;2022-08-20T04:27:39;1.07;;;1.07;;
2650;SDS011;1335;48.180;16.342;2022-08-20T04:30:09;1.47;;;0.87;;
2650;SDS011;1335;48.180;16.342;2022-08-20T04:32:39;1.00;;;1.00;;
2650;SDS011;1335;48.180;16.342;2022-08-20T04:35:08;1.77;;;1.20;;
2650;SDS011;1335;48.180;16.342;2022-08-20T04:37:38;1.13;;;1.03;;
2650;SDS011;1335;48.180;16.342;2022-08-20T04:40:07;1.23;;;1.20;;
2650;SDS011;1335;48.180;16.342;2022-08-20T04:42:54;1.37;;;1.20;;
2650;SDS011;1335;48.180;16.342;2022-08-20T04:45:23;1.17;;;1.10;;
2650;SDS011;1335;48.180;16.342;2022-08-20T04:47:50;1.20;;;1.10;;
2650;SDS011;1335;48.180;16.342;2022-08-20T04:50:18;2.03;;;1.60;;
2650;SDS011;1335;48.180;16.342;2022-08-20T04:52:46;2.10;;;1.40;;
2650;SDS011;1335;48.180;16.342;2022-08-20T04:55:14;1.00;;;1.00;;
2650;SDS011;1335;48.180;16.342;2022-08-20T04:57:43;1.60;;;1.50;;
2650;SDS011;1335;48.180;16.342;2022-08-20T05:00:12;1.60;;;1.50;;
2650;SDS011;1335;48.180;16.342;2022-08-20T05:02:42;1.70;;;0.90;;
2650;SDS011;1335;48.180;16.342;2022-08-20T05:05:10;1.40;;;1.30;;
2650;SDS011;1335;48.180;16.342;2022-08-20T05:07:38;1.57;;;1.47;;
2650;SDS011;1335;48.180;16.342;2022-08-20T05:10:07;1.40;;;1.30;;
2650;SDS011;1335;48.180;16.342;2022-08-20T05:12:35;1.27;;;1.17;;
2650;SDS011;1335;48.180;16.342;2022-08-20T05:15:03;1.30;;;1.20;;
2650;SDS011;1335;48.180;16.342;2022-08-20T05:17:31;1.40;;;1.30;;
2650;SDS011;1335;48.180;16.342;2022-08-20T05:19:59;1.10;;;1.00;;
2650;SDS011;1335;48.180;16.342;2022-08-20T05:22:26;1.27;;;0.80;;
2650;SDS011;1335;48.180;16.342;2022-08-20T05:24:54;1.60;;;1.10;;
2650;SDS011;1335;48.180;16.342;2022-08-20T05:27:23;0.90;;;0.90;;
2650;SDS011;1335;48.180;16.342;2022-08-20T05:29:51;1.20;;;1.20;;
2650;SDS011;1335;48.180;16.342;2022-08-20T05:32:20;0.97;;;0.90;;
2650;SDS011;1335;48.180;16.342;2022-08-20T05:34:47;0.70;;;0.70;;
2650;SDS011;1335;48.180;16.342;2022-08-20T05:37:15;1.30;;;1.20;;
2650;SDS011;1335;48.180;16.342;2022-08-20T05:39:43;1.00;;;1.00;;
2650;SDS011;1335;48.180;16.342;2022-08-20T05:42:10;2.23;;;1.47;;
2650;SDS011;1335;48.180;16.342;2022-08-20T05:44:37;0.80;;;0.80;;
2650;SDS011;1335;48.180;16.342;2022-08-20T05:47:04;0.80;;;0.80;;
2650;SDS011;1335;48.180;16.342;2022-08-20T05:49:31;1.90;;;0.60;;
2650;SDS011;1335;48.180;16.342;2022-08-20T05:51:59;0.73;;;0.67;;
2650;SDS011;1335;48.180;16.342;2022-08-20T05:54:27;0.63;;;0.63;;
2650;SDS011;1335;48.180;16.342;2022-08-20T05:56:54;1.07;;;0.53;;
2650;SDS011;1335;48.180;16.342;2022-08-20T05:59:22;0.50;;;0.50;;
2650;SDS011;1335;48.180;16.342;2022-08-20T06:01:50;1.27;;;0.57;;
2650;SDS011;1335;48.180;16.342;2022-08-20T06:04:18;0.60;;;0.60;;
2650;SDS011;1335;48.180;16.342;2022-08-20T06:06:52;0.57;;;0.50;;
2650;SDS011;1335;48.180;16.342;2022-08-20T06:09:21;1.13;;;0.60;;
2650;SDS011;1335;48.180;16.342;2022-08-20T06:11:51;1.23;;;0.53;;
2650;SDS011;1335;48.180;16.342;2022-08-20T06:14:18;1.70;;;0.77;;
2650;SDS011;1335;48.180;16.342;2022-08-20T06:16:46;0.83;;;0.60;;
2650;SDS011;1335;48.180;16.342;2022-08-20T06:19:13;0.60;;;0.60;;
2650;SDS011;1335;48.180;16.342;2022-08-20T06:21:40;1.43;;;0.80;;
2650;SDS011;1335;48.180;16.342;2022-08-20T06:24:08;0.50;;;0.40;;
2650;SDS011;1335;48.180;16.342;2022-08-20T06:26:35;2.17;;;0.80;;
2650;SDS011;1335;48.180;16.342;2022-08-20T06:29:04;1.20;;;1.00;;
2650;SDS011;1335;48.180;16.342;2022-08-20T06:31:31;0.50;;;0.50;;
2650;SDS011;1335;48.180;16.342;2022-08-20T06:34:03;1.53;;;0.80;;
2650;SDS011;1335;48.180;16.342;2022-08-20T06:36:31;1.40;;;0.80;;
2650;SDS011;1335;48.180;16.342;2022-08-20T06:38:59;1.13;;;0.80;;
2650;SDS011;1335;48.180;16.342;2022-08-20T06:41:26;1.23;;;0.60;;
2650;SDS011;1335;48.180;16.342;2022-08-20T06:43:53;1.10;;;0.80;;
2650;SDS011;1335;48.180;16.342;2022-08-20T06:46:21;1.07;;;0.97;;
2650;SDS011;1335;48.180;16.342;2022-08-20T06:48:49;2.90;;;0.63;;
2650;SDS011;1335;48.180;16.342;2022-08-20T06:51:16;1.07;;;0.40;;
2650;SDS011;1335;48.180;16.342;2022-08-20T06:53:44;1.00;;;0.80;;
2650;SDS011;1335;48.180;16.342;2022-08-20T06:56:11;0.87;;;0.87;;
2650;SDS011;1335;48.180;16.342;2022-08-20T06:58:38;2.20;;;0.70;;
2650;SDS011;1335;48.180;16.342;2022-08-20T07:01:06;2.33;;;0.80;;
2650;SDS011;1335;48.180;16.342;2022-08-20T07:03:36;1.07;;;0.73;;
2650;SDS011;1335;48.180;16.342;2022-08-20T07:06:05;5.17;;;0.90;;
2650;SDS011;1335;48.180;16.342;2022-08-20T07:08:33;0.80;;;0.80;;
2650;SDS011;1335;48.180;16.342;2022-08-20T07:11:00;1.10;;;0.73;;
2650;SDS011;1335;48.180;16.342;2022-08-20T07:13:28;2.83;;;0.67;;
2650;SDS011;1335;48.180;16.342;2022-08-20T07:15:55;3.60;;;0.70;;
2650;SDS011;1335;48.180;16.342;2022-08-20T07:18:23;1.10;;;1.00;;
2650;SDS011;1335;48.180;16.342;2022-08-20T07:20:54;0.53;;;0.53;;
2650;SDS011;1335;48.180;16.342;2022-08-20T07:23:22;1.07;;;0.87;;
2650;SDS011;1335;48.180;16.342;2022-08-20T07:25:49;0.80;;;0.60;;
2650;SDS011;1335;48.180;16.342;2022-08-20T07:28:18;0.93;;;0.50;;
2650;SDS011;1335;48.180;16.342;2022-08-20T07:30:48;1.13;;;0.53;;
2650;SDS011;1335;48.180;16.342;2022-08-20T07:33:33;1.07;;;0.60;;
2650;SDS011;1335;48.180;16.342;2022-08-20T07:36:03;0.93;;;0.60;;
2650;SDS011;1335;48.180;16.342;2022-08-20T07:38:30;0.80;;;0.40;;
2650;SDS011;1335;48.180;16.342;2022-08-20T07:40:59;0.50;;;0.40;;
2650;SDS011;1335;48.180;16.342;2022-08-20T07:43:28;1.43;;;0.50;;
2650;SDS011;1335;48.180;16.342;2022-08-20T07:45:56;0.70;;;0.60;;
2650;SDS011;1335;48.180;16.342;2022-08-20T07:48:25;1.47;;;0.60;;
2650;SDS011;1335;48.180;16.342;2022-08-20T07:50:53;2.33;;;0.70;;
2650;SDS011;1335;48.180;16.342;2022-08-20T07:53:22;1.63;;;0.50;;
2650;SDS011;1335;48.180;16.342;2022-08-20T07:55:49;1.37;;;0.67;;
2650;SDS011;1335;48.180;16.342;2022-08-20T07:58:17;3.70;;;0.57;;
2650;SDS011;1335;48.180;16.342;2022-08-20T08:00:46;1.00;;;0.80;;
2650;SDS011;1335;48.180;16.342;2022-08-20T08:03:13;0.60;;;0.60;;
2650;SDS011;1335;48.180;16.342;2022-08-20T08:05:42;2.60;;;0.50;;
2650;SDS011;1335;48.180;16.342;2022-08-20T08:08:12;3.40;;;0.87;;
2650;SDS011;1335;48.180;16.342;2022-08-20T08:10:44;3.10;;;0.70;;
2650;SDS011;1335;48.180;16.342;2022-08-20T08:13:12;0.77;;;0.43;;
2650;SDS011;1335;48.180;16.342;2022-08-20T08:15:41;2.77;;;0.60;;
2650;SDS011;1335;48.180;16.342;2022-08-20T08:18:20;1.33;;;0.40;;
2650;SDS011;1335;48.180;16.342;2022-08-20T08:20:51;0.60;;;0.40;;
2650;SDS011;1335;48.180;16.342;2022-08-20T08:23:20;1.60;;;0.60;;
2650;SDS011;1335;48.180;16.342;2022-08-20T08:25:50;0.40;;;0.40;;
2650;SDS011;1335;48.180;16.342;2022-08-20T08:28:20;2.50;;;0.60;;
2650;SDS011;1335;48.180;16.342;2022-08-20T08:30:49;0.80;;;0.40;;
2650;SDS011;1335;48.180;16.342;2022-08-20T08:33:18;1.53;;;0.50;;
2650;SDS011;1335;48.180;16.342;2022-08-20T08:35:57;0.57;;;0.40;;
2650;SDS011;1335;48.180;16.342;2022-08-20T08:38:27;1.40;;;0.50;;
2650;SDS011;1335;48.180;16.342;2022-08-20T08:40:57;1.40;;;0.40;;
2650;SDS011;1335;48.180;16.342;2022-08-20T08:43:34;4.50;;;0.60;;
2650;SDS011;1335;48.180;16.342;2022-08-20T08:46:02;0.50;;;0.50;;
2650;SDS011;1335;48.180;16.342;2022-08-20T08:48:32;1.00;;;0.50;;
2650;SDS011;1335;48.180;16.342;2022-08-20T08:51:03;1.70;;;0.47;;
2650;SDS011;1335;48.180;16.342;2022-08-20T08:53:37;1.50;;;0.50;;
2650;SDS011;1335;48.180;16.342;2022-08-20T08:56:08;0.93;;;0.40;;
2650;SDS011;1335;48.180;16.342;2022-08-20T08:58:35;0.70;;;0.60;;
2650;SDS011;1335;48.180;16.342;2022-08-20T09:01:07;2.90;;;0.60;;
2650;SDS011;1335;48.180;16.342;2022-08-20T09:03:37;1.63;;;0.80;;
2650;SDS011;1335;48.180;16.342;2022-08-20T09:06:07;0.53;;;0.53;;
2650;SDS011;1335;48.180;16.342;2022-08-20T09:08:42;0.70;;;0.70;;
2650;SDS011;1335;48.180;16.342;2022-08-20T09:11:13;1.30;;;0.70;;
2650;SDS011;1335;48.180;16.342;2022-08-20T09:13:41;2.07;;;0.67;;
2650;SDS011;1335;48.180;16.342;2022-08-20T09:16:09;1.97;;;1.87;;
2650;SDS011;1335;48.180;16.342;2022-08-20T09:18:37;1.87;;;1.00;;
2650;SDS011;1335;48.180;16.342;2022-08-20T09:21:04;1.40;;;0.93;;
2650;SDS011;1335;48.180;16.342;2022-08-20T09:23:32;4.57;;;1.10;;
2650;SDS011;1335;48.180;16.342;2022-08-20T09:25:59;1.33;;;0.50;;
2650;SDS011;1335;48.180;16.342;2022-08-20T09:28:28;0.60;;;0.50;;
2650;SDS011;1335;48.180;16.342;2022-08-20T09:30:55;1.20;;;1.20;;
2650;SDS011;1335;48.180;16.342;2022-08-20T09:33:22;0.80;;;0.60;;
2650;SDS011;1335;48.180;16.342;2022-08-20T09:35:49;2.97;;;0.53;;
2650;SDS011;1335;48.180;16.342;2022-08-20T09:38:16;1.20;;;0.97;;
2650;SDS011;1335;48.180;16.342;2022-08-20T09:40:44;2.97;;;1.40;;
2650;SDS011;1335;48.180;16.342;2022-08-20T09:43:11;3.37;;;0.60;;
2650;SDS011;1335;48.180;16.342;2022-08-20T09:45:40;1.50;;;1.40;;
2650;SDS011;1335;48.180;16.342;2022-08-20T09:48:07;2.83;;;1.03;;
2650;SDS011;1335;48.180;16.342;2022-08-20T09:50:34;0.90;;;0.90;;
2650;SDS011;1335;48.180;16.342;2022-08-20T09:53:02;1.27;;;0.87;;
2650;SDS011;1335;48.180;16.342;2022-08-20T09:55:31;0.90;;;0.80;;
2650;SDS011;1335;48.180;16.342;2022-08-20T09:58:05;0.80;;;0.80;;
2650;SDS011;1335;48.180;16.342;2022-08-20T10:00:36;1.10;;;0.90;;
2650;SDS011;1335;48.180;16.342;2022-08-20T10:03:06;0.90;;;0.90;;
2650;SDS011;1335;48.180;16.342;2022-08-20T10:05:34;0.70;;;0.70;;
2650;SDS011;1335;48.180;16.342;2022-08-20T10:08:03;1.10;;;0.90;;
2650;SDS011;1335;48.180;16.342;2022-08-20T10:10:32;1.80;;;0.90;;
2650;SDS011;1335;48.180;16.342;2022-08-20T10:13:21;1.20;;;1.20;;
2650;SDS011;1335;48.180;16.342;2022-08-20T10:15:49;1.80;;;1.17;;
2650;SDS011;1335;48.180;16.342;2022-08-20T10:18:18;1.17;;;0.90;;
2650;SDS011;1335;48.180;16.342;2022-08-20T10:20:47;1.80;;;0.70;;
2650;SDS011;1335;48.180;16.342;2022-08-20T10:23:16;0.80;;;0.80;;
2650;SDS011;1335;48.180;16.342;2022-08-20T10:26:05;2.03;;;1.10;;
2650;SDS011;1335;48.180;16.342;2022-08-20T10:28:39;2.10;;;1.30;;
2650;SDS011;1335;48.180;16.342;2022-08-20T10:31:06;1.00;;;1.00;;
2650;SDS011;1335;48.180;16.342;2022-08-20T10:33:37;2.63;;;1.10;;
2650;SDS011;1335;48.180;16.342;2022-08-20T10:36:05;2.60;;;1.50;;
2650;SDS011;1335;48.180;16.342;2022-08-20T10:38:33;1.00;;;1.00;;
2650;SDS011;1335;48.180;16.342;2022-08-20T10:41:02;2.17;;;1.50;;
2650;SDS011;1335;48.180;16.342;2022-08-20T10:43:30;0.90;;;0.90;;
2650;SDS011;1335;48.180;16.342;2022-08-20T10:45:58;0.97;;;0.97;;
2650;SDS011;1335;48.180;16.342;2022-08-20T10:48:28;4.57;;;1.67;;
2650;SDS011;1335;48.180;16.342;2022-08-20T10:50:57;1.30;;;1.20;;
2650;SDS011;1335;48.180;16.342;2022-08-20T10:53:24;1.50;;;1.40;;
2650;SDS011;1335;48.180;16.342;2022-08-20T10:55:51;1.70;;;1.27;;
2650;SDS011;1335;48.180;16.342;2022-08-20T10:58:19;2.20;;;1.23;;
2650;SDS011;1335;48.180;16.342;2022-08-20T11:00:47;2.20;;;2.10;;
2650;SDS011;1335;48.180;16.342;2022-08-20T11:03:14;1.20;;;1.20;;
2650;SDS011;1335;48.180;16.342;2022-08-20T11:05:41;0.83;;;0.83;;
2650;SDS011;1335;48.180;16.342;2022-08-20T11:08:10;1.43;;;1.03;;
2650;SDS011;1335;48.180;16.342;2022-08-20T11:10:37;5.13;;;1.50;;
2650;SDS011;1335;48.180;16.342;2022-08-20T11:13:06;1.73;;;1.53;;
2650;SDS011;1335;48.180;16.342;2022-08-20T11:15:37;1.70;;;1.20;;
2650;SDS011;1335;48.180;16.342;2022-08-20T11:18:06;1.40;;;1.30;;
2650;SDS011;1335;48.180;16.342;2022-08-20T11:20:34;1.20;;;1.20;;
2650;SDS011;1335;48.180;16.342;2022-08-20T11:23:03;1.77;;;1.60;;
2650;SDS011;1335;48.180;16.342;2022-08-20T11:25:32;1.93;;;1.77;;
2650;SDS011;1335;48.180;16.342;2022-08-20T11:28:00;1.53;;;1.47;;
2650;SDS011;1335;48.180;16.342;2022-08-20T11:30:28;1.70;;;1.60;;
2650;SDS011;1335;48.180;16.342;2022-08-20T11:32:57;1.67;;;1.57;;
2650;SDS011;1335;48.180;16.342;2022-08-20T11:35:26;1.50;;;1.40;;
2650;SDS011;1335;48.180;16.342;2022-08-20T11:37:55;1.47;;;1.30;;
2650;SDS011;1335;48.180;16.342;2022-08-20T11:40:25;1.73;;;1.50;;
2650;SDS011;1335;48.180;16.342;2022-08-20T11:42:54;1.93;;;1.83;;
2650;SDS011;1335;48.180;16.342;2022-08-20T11:45:21;2.03;;;1.83;;
2650;SDS011;1335;48.180;16.342;2022-08-20T11:47:49;1.67;;;1.57;;
2650;SDS011;1335;48.180;16.342;2022-08-20T11:50:17;2.97;;;1.80;;
2650;SDS011;1335;48.180;16.342;2022-08-20T11:52:46;1.50;;;1.40;;
2650;SDS011;1335;48.180;16.342;2022-08-20T11:55:15;1.70;;;1.60;;
2650;SDS011;1335;48.180;16.342;2022-08-20T11:57:45;1.87;;;1.77;;
2650;SDS011;1335;48.180;16.342;2022-08-20T12:00:18;2.03;;;1.70;;
2650;SDS011;1335;48.180;16.342;2022-08-20T12:02:48;1.90;;;1.77;;
2650;SDS011;1335;48.180;16.342;2022-08-20T12:05:16;2.23;;;1.97;;
2650;SDS011;1335;48.180;16.342;2022-08-20T12:07:45;4.10;;;1.50;;
2650;SDS011;1335;48.180;16.342;2022-08-20T12:10:13;1.90;;;1.73;;
2650;SDS011;1335;48.180;16.342;2022-08-20T12:12:43;2.00;;;1.90;;
2650;SDS011;1335;48.180;16.342;2022-08-20T12:15:11;4.77;;;3.33;;
2650;SDS011;1335;48.180;16.342;2022-08-20T12:17:40;2.90;;;2.70;;
2650;SDS011;1335;48.180;16.342;2022-08-20T12:20:10;2.97;;;2.80;;
2650;SDS011;1335;48.180;16.342;2022-08-20T12:22:39;3.70;;;2.60;;
2650;SDS011;1335;48.180;16.342;2022-08-20T12:25:08;2.40;;;2.03;;
2650;SDS011;1335;48.180;16.342;2022-08-20T12:27:41;2.80;;;2.27;;
2650;SDS011;1335;48.180;16.342;2022-08-20T12:30:12;3.23;;;2.10;;
2650;SDS011;1335;48.180;16.342;2022-08-20T12:32:43;2.50;;;2.30;;
2650;SDS011;1335;48.180;16.342;2022-08-20T12:35:11;5.20;;;1.80;;
2650;SDS011;1335;48.180;16.342;2022-08-20T12:37:41;5.30;;;2.20;;
2650;SDS011;1335;48.180;16.342;2022-08-20T12:40:10;2.30;;;2.10;;
2650;SDS011;1335;48.180;16.342;2022-08-20T12:42:39;2.10;;;1.90;;
2650;SDS011;1335;48.180;16.342;2022-08-20T12:45:08;2.33;;;2.20;;
2650;SDS011;1335;48.180;16.342;2022-08-20T12:47:38;2.37;;;2.27;;
2650;SDS011;1335;48.180;16.342;2022-08-20T12:50:09;2.30;;;2.20;;
2650;SDS011;1335;48.180;16.342;2022-08-20T12:52:39;3.20;;;3.00;;
2650;SDS011;1335;48.180;16.342;2022-08-20T12:55:07;2.93;;;2.60;;
2650;SDS011;1335;48.180;16.342;2022-08-20T12:57:37;3.10;;;2.90;;
2650;SDS011;1335;48.180;16.342;2022-08-20T13:00:10;5.57;;;5.07;;
2650;SDS011;1335;48.180;16.342;2022-08-20T13:02:40;2.30;;;2.20;;
2650;SDS011;1335;48.180;16.342;2022-08-20T13:05:10;2.40;;;2.20;;
2650;SDS011;1335;48.180;16.342;2022-08-20T13:07:38;2.00;;;1.90;;
2650;SDS011;1335;48.180;16.342;2022-08-20T13:10:13;1.90;;;1.80;;
2650;SDS011;1335;48.180;16.342;2022-08-20T13:12:43;2.27;;;2.17;;
2650;SDS011;1335;48.180;16.342;2022-08-20T13:15:11;2.27;;;2.07;;
2650;SDS011;1335;48.180;16.342;2022-08-20T13:17:39;2.90;;;2.60;;
2650;SDS011;1335;48.180;16.342;2022-08-20T13:20:13;2.10;;;2.00;;
2650;SDS011;1335;48.180;16.342;2022-08-20T13:22:44;1.90;;;1.80;;
2650;SDS011;1335;48.180;16.342;2022-08-20T13:25:12;2.40;;;2.30;;
2650;SDS011;1335;48.180;16.342;2022-08-20T13:27:40;2.20;;;2.10;;
2650;SDS011;1335;48.180;16.342;2022-08-20T13:30:09;2.30;;;2.20;;
2650;SDS011;1335;48.180;16.342;2022-08-20T13:32:38;1.87;;;1.77;;
2650;SDS011;1335;48.180;16.342;2022-08-20T13:35:06;2.17;;;2.07;;
2650;SDS011;1335;48.180;16.342;2022-08-20T13:40:21;2.20;;;1.77;;
2650;SDS011;1335;48.180;16.342;2022-08-20T13:42:48;3.30;;;2.10;;
2650;SDS011;1335;48.180;16.342;2022-08-20T13:45:15;2.07;;;1.80;;
2650;SDS011;1335;48.180;16.342;2022-08-20T13:47:43;2.63;;;2.43;;
2650;SDS011;1335;48.180;16.342;2022-08-20T13:50:11;2.33;;;2.20;;
2650;SDS011;1335;48.180;16.342;2022-08-20T13:52:40;2.50;;;2.30;;
2650;SDS011;1335;48.180;16.342;2022-08-20T13:55:10;2.10;;;2.00;;
2650;SDS011;1335;48.180;16.342;2022-08-20T13:57:39;1.90;;;1.80;;
2650;SDS011;1335;48.180;16.342;2022-08-20T14:00:08;2.10;;;1.90;;
2650;SDS011;1335;48.180;16.342;2022-08-20T14:02:37;2.60;;;2.23;;
2650;SDS011;1335;48.180;16.342;2022-08-20T14:05:06;2.43;;;2.03;;
2650;SDS011;1335;48.180;16.342;2022-08-20T14:07:34;3.87;;;2.50;;
2650;SDS011;1335;48.180;16.342;2022-08-20T14:10:04;2.90;;;2.10;;
2650;SDS011;1335;48.180;16.342;2022-08-20T14:12:36;2.20;;;2.10;;
2650;SDS011;1335;48.180;16.342;2022-08-20T14:15:05;2.87;;;2.70;;
2650;SDS011;1335;48.180;16.342;2022-08-20T14:17:37;2.87;;;2.37;;
2650;SDS011;1335;48.180;16.342;2022-08-20T14:20:07;2.90;;;2.47;;
2650;SDS011;1335;48.180;16.342;2022-08-20T14:22:36;2.23;;;2.13;;
2650;SDS011;1335;48.180;16.342;2022-08-20T14:25:05;2.50;;;2.40;;
2650;SDS011;1335;48.180;16.342;2022-08-20T14:27:34;6.33;;;2.80;;
2650;SDS011;1335;48.180;16.342;2022-08-20T14:30:03;2.60;;;2.40;;
2650;SDS011;1335;48.180;16.342;2022-08-20T14:32:33;2.70;;;2.50;;
2650;SDS011;1335;48.180;16.342;2022-08-20T14:35:01;2.40;;;2.20;;
2650;SDS011;1335;48.180;16.342;2022-08-20T14:37:31;2.30;;;2.10;;
2650;SDS011;1335;48.180;16.342;2022-08-20T14:40:03;2.90;;;2.70;;
2650;SDS011;1335;48.180;16.342;2022-08-20T14:42:32;2.90;;;2.37;;
2650;SDS011;1335;48.180;16.342;2022-08-20T14:45:01;4.30;;;3.37;;
2650;SDS011;1335;48.180;16.342;2022-08-20T14:47:32;2.80;;;2.60;;
2650;SDS011;1335;48.180;16.342;2022-08-20T14:50:03;3.80;;;3.33;;
2650;SDS011;1335;48.180;16.342;2022-08-20T14:52:32;3.10;;;2.80;;
2650;SDS011;1335;48.180;16.342;2022-08-20T14:55:00;3.20;;;3.00;;
2650;SDS011;1335;48.180;16.342;2022-08-20T14:57:29;2.73;;;2.60;;
2650;SDS011;1335;48.180;16.342;2022-08-20T14:59:57;3.10;;;2.90;;
2650;SDS011;1335;48.180;16.342;2022-08-20T15:02:25;4.50;;;3.27;;
2650;SDS011;1335;48.180;16.342;2022-08-20T15:04:53;3.27;;;3.07;;
2650;SDS011;1335;48.180;16.342;2022-08-20T15:07:22;2.70;;;2.50;;
2650;SDS011;1335;48.180;16.342;2022-08-20T15:09:50;4.20;;;3.83;;
2650;SDS011;1335;48.180;16.342;2022-08-20T15:12:18;3.37;;;3.07;;
2650;SDS011;1335;48.180;16.342;2022-08-20T15:14:45;3.30;;;3.10;;